createdAt,value
2022-12-18T00:01:21.468Z,17.70
2022-12-18T00:03:48.721Z,20.50
2022-12-18T00:06:15.862Z,20.83
2022-12-18T00:08:43.668Z,22.67
2022-12-18T00:11:13.364Z,20.10
2022-12-18T00:13:40.314Z,22.10
2022-12-18T00:16:10.877Z,19.50
2022-12-18T00:18:37.604Z,26.13
2022-12-18T00:21:07.239Z,25.27
2022-12-18T00:23:35.699Z,23.23
2022-12-18T00:26:05.460Z,21.48
2022-12-18T00:28:32.190Z,21.00
2022-12-18T00:31:01.568Z,23.85
2022-12-18T00:33:28.443Z,21.98
2022-12-18T00:35:54.766Z,23.65
2022-12-18T00:38:21.178Z,21.33
2022-12-18T00:40:47.528Z,21.73
2022-12-18T00:43:13.888Z,22.42
2022-12-18T00:45:40.238Z,23.85
2022-12-18T00:48:07.133Z,21.50
2022-12-18T00:50:33.568Z,17.58
2022-12-18T00:52:59.951Z,21.30
2022-12-18T00:55:26.339Z,17.58
2022-12-18T00:57:53.491Z,22.88
2022-12-18T01:00:19.917Z,22.20
2022-12-18T01:02:46.433Z,23.00
2022-12-18T01:05:14.646Z,21.23
2022-12-18T01:07:41.023Z,19.88
2022-12-18T01:10:08.775Z,22.40
2022-12-18T01:12:35.302Z,22.73
2022-12-18T01:15:01.892Z,18.38
2022-12-18T01:17:28.413Z,22.13
2022-12-18T01:19:54.738Z,19.65
2022-12-18T01:22:21.139Z,21.88
2022-12-18T01:24:47.483Z,21.92
2022-12-18T01:27:13.947Z,18.42
2022-12-18T01:29:40.252Z,19.40
2022-12-18T01:32:06.687Z,18.73
2022-12-18T01:34:33.125Z,20.02
2022-12-18T01:36:59.430Z,20.27
2022-12-18T01:39:26.217Z,17.58
2022-12-18T01:42:04.783Z,18.45
2022-12-18T01:44:56.322Z,19.55
2022-12-18T01:47:34.803Z,19.23
2022-12-18T01:50:08.208Z,19.33
2022-12-18T01:52:40.814Z,17.35
2022-12-18T01:55:09.118Z,18.80
2022-12-18T01:57:35.819Z,17.75
2022-12-18T02:00:08.116Z,18.52
2022-12-18T02:02:34.601Z,20.25
2022-12-18T02:05:01.521Z,21.15
2022-12-18T02:08:01.622Z,21.50
2022-12-18T02:10:32.586Z,19.67
2022-12-18T02:13:22.914Z,18.23
2022-12-18T02:16:07.243Z,15.35
2022-12-18T02:18:38.744Z,16.92
2022-12-18T02:21:26.369Z,18.33
2022-12-18T02:24:05.795Z,19.85
2022-12-18T02:26:38.977Z,16.73
2022-12-18T02:29:11.330Z,23.52
2022-12-18T02:31:51.610Z,17.73
2022-12-18T02:34:20.504Z,19.73
2022-12-18T02:36:48.918Z,18.50
2022-12-18T02:39:16.846Z,17.38
2022-12-18T02:41:43.394Z,21.63
2022-12-18T02:44:14.076Z,18.17
2022-12-18T02:46:44.369Z,19.30
2022-12-18T02:49:16.788Z,18.20
2022-12-18T02:51:53.959Z,21.58
2022-12-18T02:54:47.886Z,20.52
2022-12-18T02:57:24.620Z,20.65
2022-12-18T03:00:02.611Z,17.70
2022-12-18T03:02:43.312Z,17.60
2022-12-18T03:05:19.778Z,19.88
2022-12-18T03:07:54.231Z,17.05
2022-12-18T03:10:27.790Z,17.90
2022-12-18T03:13:01.450Z,18.35
2022-12-18T03:15:34.801Z,21.67
2022-12-18T03:18:06.153Z,18.80
2022-12-18T03:20:35.883Z,16.60
2022-12-18T03:23:10.045Z,18.90
2022-12-18T03:25:40.662Z,20.73
2022-12-18T03:28:09.618Z,20.50
2022-12-18T03:30:41.899Z,15.57
2022-12-18T03:33:13.727Z,16.02
2022-12-18T03:35:43.616Z,18.80
2022-12-18T03:38:11.406Z,15.52
2022-12-18T03:41:05.827Z,18.92
2022-12-18T03:43:46.770Z,26.08
2022-12-18T03:46:25.280Z,17.95
2022-12-18T03:49:00.727Z,16.48
2022-12-18T03:51:52.634Z,20.52
2022-12-18T03:54:21.058Z,18.77
2022-12-18T03:56:54.879Z,17.85
2022-12-18T03:59:23.257Z,18.83
2022-12-18T04:01:54.212Z,19.00
2022-12-18T04:04:21.146Z,16.83
2022-12-18T04:06:50.555Z,19.60
2022-12-18T04:09:17.195Z,18.13
2022-12-18T04:11:45.261Z,16.75
2022-12-18T04:14:17.403Z,21.65
2022-12-18T04:16:44.568Z,19.15
2022-12-18T04:19:10.985Z,16.60
2022-12-18T04:21:37.415Z,17.73
2022-12-18T04:24:03.919Z,20.60
2022-12-18T04:26:30.268Z,18.55
2022-12-18T04:28:56.659Z,21.67
2022-12-18T04:31:23.202Z,16.88
2022-12-18T04:33:49.674Z,21.08
2022-12-18T04:36:16.039Z,17.38
2022-12-18T04:38:42.457Z,18.23
2022-12-18T04:41:09.110Z,18.58
2022-12-18T04:43:35.493Z,19.00
2022-12-18T04:46:03.927Z,19.65
2022-12-18T04:48:30.366Z,20.17
2022-12-18T04:50:56.751Z,17.55
2022-12-18T04:53:23.158Z,16.33
2022-12-18T04:55:49.586Z,19.77
2022-12-18T04:58:16.275Z,18.15
2022-12-18T05:00:42.910Z,17.88
2022-12-18T05:03:09.230Z,17.33
2022-12-18T05:05:36.392Z,16.73
2022-12-18T05:08:02.826Z,18.42
2022-12-18T05:10:36.189Z,18.27
2022-12-18T05:13:04.202Z,19.95
2022-12-18T05:15:32.001Z,18.95
2022-12-18T05:17:59.623Z,18.92
2022-12-18T05:20:27.399Z,19.75
2022-12-18T05:22:54.891Z,18.85
2022-12-18T05:25:22.698Z,16.48
2022-12-18T05:27:49.422Z,19.05
2022-12-18T05:30:16.668Z,20.88
2022-12-18T05:32:43.281Z,22.10
2022-12-18T05:35:11.709Z,17.45
2022-12-18T05:37:42.710Z,16.98
2022-12-18T05:40:10.803Z,19.77
2022-12-18T05:42:37.417Z,21.00
2022-12-18T05:45:04.303Z,20.27
2022-12-18T05:47:30.683Z,18.48
2022-12-18T05:49:57.068Z,18.60
2022-12-18T05:52:23.635Z,18.45
2022-12-18T05:54:49.957Z,19.45
2022-12-18T05:57:16.336Z,17.30
2022-12-18T05:59:42.805Z,15.68
2022-12-18T06:02:09.441Z,18.23
2022-12-18T06:04:35.907Z,16.52
2022-12-18T06:07:05.070Z,19.02
2022-12-18T06:09:31.715Z,18.80
2022-12-18T06:11:58.093Z,18.90
2022-12-18T06:14:24.420Z,19.70
2022-12-18T06:16:52.821Z,17.90
2022-12-18T06:19:19.197Z,18.90
2022-12-18T06:21:45.558Z,16.15
2022-12-18T06:24:12.026Z,20.60
2022-12-18T06:26:39.802Z,17.35
2022-12-18T06:29:06.423Z,17.63
2022-12-18T06:31:32.930Z,18.23
2022-12-18T06:33:59.347Z,19.60
2022-12-18T06:36:25.765Z,19.60
2022-12-18T06:38:52.140Z,18.33
2022-12-18T06:41:20.959Z,20.65
2022-12-18T06:43:47.417Z,19.20
2022-12-18T06:46:14.058Z,21.15
2022-12-18T06:48:40.489Z,20.80
2022-12-18T06:51:06.926Z,19.08
2022-12-18T06:53:33.745Z,19.25
2022-12-18T06:56:07.823Z,20.73
2022-12-18T06:58:36.162Z,17.67
2022-12-18T07:01:05.060Z,19.38
2022-12-18T07:03:31.712Z,17.88
2022-12-18T07:05:58.130Z,18.88
2022-12-18T07:08:24.701Z,23.80
2022-12-18T07:10:55.927Z,24.70
2022-12-18T07:13:22.837Z,21.88
2022-12-18T07:15:50.263Z,20.83
2022-12-18T07:18:16.601Z,21.75
2022-12-18T07:20:42.905Z,18.73
2022-12-18T07:23:09.235Z,16.73
2022-12-18T07:25:36.744Z,19.85
2022-12-18T07:28:03.385Z,18.80
2022-12-18T07:30:29.883Z,21.73
2022-12-18T07:32:56.316Z,21.00
2022-12-18T07:35:25.251Z,20.85
2022-12-18T07:37:52.022Z,21.10
2022-12-18T07:40:18.408Z,20.25
2022-12-18T07:42:44.791Z,19.27
2022-12-18T07:45:11.750Z,22.75
2022-12-18T07:47:38.204Z,20.42
2022-12-18T07:50:07.692Z,21.70
2022-12-18T07:52:34.015Z,20.17
2022-12-18T07:55:03.818Z,22.90
2022-12-18T08:00:17.180Z,27.77
2022-12-18T08:02:43.712Z,20.23
2022-12-18T08:05:10.108Z,22.10
2022-12-18T08:07:36.452Z,19.83
2022-12-18T08:10:03.016Z,20.58
2022-12-18T08:12:30.457Z,21.63
2022-12-18T08:14:56.848Z,18.70
2022-12-18T08:17:23.230Z,19.40
2022-12-18T08:19:49.634Z,21.15
2022-12-18T08:22:16.003Z,20.92
2022-12-18T08:24:42.347Z,19.83
2022-12-18T08:29:55.032Z,18.30
2022-12-18T08:32:21.495Z,22.48
2022-12-18T08:34:47.880Z,23.00
2022-12-18T08:37:14.216Z,20.98
2022-12-18T08:39:40.584Z,26.00
2022-12-18T08:42:25.607Z,21.75
2022-12-18T08:44:51.940Z,22.73
2022-12-18T08:47:18.314Z,21.85
2022-12-18T08:49:44.610Z,19.65
2022-12-18T08:52:10.960Z,20.08
2022-12-18T08:54:37.412Z,23.33
2022-12-18T08:57:03.847Z,20.90
2022-12-18T08:59:30.180Z,21.25
2022-12-18T09:01:56.752Z,22.42
2022-12-18T09:04:23.594Z,22.60
2022-12-18T09:06:49.962Z,19.90
2022-12-18T09:09:16.320Z,21.88
2022-12-18T09:11:42.681Z,18.90
2022-12-18T09:14:10.756Z,20.35
2022-12-18T09:16:37.266Z,24.02
2022-12-18T09:19:05.325Z,23.15
2022-12-18T09:21:36.737Z,22.55
2022-12-18T09:24:05.012Z,21.60
2022-12-18T09:26:34.674Z,20.10
2022-12-18T09:29:01.028Z,19.42
2022-12-18T09:31:27.379Z,20.38
2022-12-18T09:33:56.028Z,21.92
2022-12-18T09:36:22.347Z,20.27
2022-12-18T09:38:48.775Z,23.20
2022-12-18T09:41:42.397Z,22.63
2022-12-18T09:44:11.768Z,20.90
2022-12-18T09:46:44.483Z,21.60
2022-12-18T09:49:15.584Z,20.00
2022-12-18T09:51:48.487Z,19.08
2022-12-18T09:54:23.414Z,20.37
2022-12-18T09:56:49.969Z,20.52
2022-12-18T09:59:25.007Z,20.83
2022-12-18T10:01:59.661Z,19.75
2022-12-18T10:04:32.469Z,20.45
2022-12-18T10:07:10.577Z,16.98
2022-12-18T10:09:59.509Z,19.02
2022-12-18T10:13:04.140Z,21.08
2022-12-18T10:15:31.175Z,19.65
2022-12-18T10:18:23.441Z,17.83
2022-12-18T10:20:56.790Z,18.27
2022-12-18T10:23:38.085Z,18.58
2022-12-18T10:26:07.262Z,20.02
2022-12-18T10:28:37.114Z,20.80
2022-12-18T10:31:06.518Z,20.77
2022-12-18T10:33:34.321Z,19.02
2022-12-18T10:36:01.348Z,24.40
2022-12-18T10:38:30.491Z,19.45
2022-12-18T10:41:01.823Z,17.02
2022-12-18T10:43:36.604Z,20.83
2022-12-18T10:46:03.005Z,20.02
2022-12-18T10:48:31.404Z,21.40
2022-12-18T10:51:13.855Z,17.65
2022-12-18T10:53:43.521Z,19.15
2022-12-18T10:56:10.354Z,21.00
2022-12-18T10:58:42.196Z,19.75
2022-12-18T11:01:17.502Z,18.17
2022-12-18T11:03:49.329Z,19.55
2022-12-18T11:06:18.282Z,17.10
2022-12-18T11:08:59.201Z,19.58
2022-12-18T11:11:29.655Z,25.48
2022-12-18T11:14:19.334Z,19.55
2022-12-18T11:17:24.368Z,19.27
2022-12-18T11:19:44.854Z,17.38
2022-12-18T11:22:33.773Z,18.58
2022-12-18T11:25:30.847Z,19.40
2022-12-18T11:27:53.176Z,18.85
2022-12-18T11:30:30.177Z,18.48
2022-12-18T11:33:05.077Z,18.08
2022-12-18T11:35:48.774Z,16.80
2022-12-18T11:38:39.044Z,16.50
2022-12-18T11:41:06.461Z,17.92
2022-12-18T11:43:39.653Z,22.60
2022-12-18T11:46:19.642Z,17.95
2022-12-18T11:48:56.987Z,18.77
2022-12-18T11:51:33.107Z,19.70
2022-12-18T11:54:01.185Z,20.33
2022-12-18T11:56:37.436Z,17.65
2022-12-18T11:59:10.267Z,20.70
2022-12-18T12:01:51.442Z,22.45
2022-12-18T12:04:27.076Z,16.98
2022-12-18T12:07:17.868Z,19.92
2022-12-18T12:10:02.572Z,17.75
2022-12-18T12:13:17.436Z,18.00
2022-12-18T12:15:49.785Z,18.58
2022-12-18T12:18:41.205Z,17.88
2022-12-18T12:21:35.547Z,16.35
2022-12-18T12:24:20.557Z,24.48
2022-12-18T12:27:09.358Z,18.30
2022-12-18T12:30:04.700Z,22.52
2022-12-18T12:32:43.214Z,18.92
2022-12-18T12:35:17.854Z,29.20
2022-12-18T12:38:06.225Z,18.90
2022-12-18T12:40:52.438Z,16.17
2022-12-18T12:43:26.828Z,18.65
2022-12-18T12:46:04.521Z,17.80
2022-12-18T12:48:42.002Z,17.20
2022-12-18T12:51:20.518Z,16.83
2022-12-18T12:53:47.375Z,25.80
2022-12-18T12:56:17.671Z,19.13
2022-12-18T12:58:59.237Z,18.67
2022-12-18T13:01:48.394Z,19.08
2022-12-18T13:04:28.056Z,16.77
2022-12-18T13:06:54.431Z,20.00
2022-12-18T13:09:21.047Z,19.80
2022-12-18T13:12:07.301Z,17.58
2022-12-18T13:14:36.968Z,22.08
2022-12-18T13:17:22.143Z,19.30
2022-12-18T13:19:53.397Z,19.00
2022-12-18T13:22:23.795Z,21.05
2022-12-18T13:24:50.603Z,19.20
2022-12-18T13:27:45.051Z,20.63
2022-12-18T13:30:34.359Z,18.27
2022-12-18T13:33:19.493Z,19.30
2022-12-18T13:35:48.869Z,23.08
2022-12-18T13:38:33.282Z,21.05
2022-12-18T13:41:02.764Z,20.10
2022-12-18T13:43:33.735Z,22.42
2022-12-18T13:46:01.565Z,19.63
2022-12-18T13:48:32.468Z,21.10
2022-12-18T13:51:09.686Z,26.10
2022-12-18T13:53:44.404Z,19.23
2022-12-18T13:56:17.093Z,20.92
2022-12-18T13:58:43.700Z,25.38
2022-12-18T14:01:24.657Z,19.23
2022-12-18T14:03:51.146Z,19.70
2022-12-18T14:06:18.168Z,23.23
2022-12-18T14:08:45.466Z,19.75
2022-12-18T14:11:23.173Z,22.13
2022-12-18T14:13:50.400Z,19.60
2022-12-18T14:16:18.035Z,24.95
2022-12-18T14:18:55.516Z,22.92
2022-12-18T14:21:30.406Z,22.17
2022-12-18T14:24:20.016Z,19.98
2022-12-18T14:26:48.124Z,21.52
2022-12-18T14:29:28.332Z,26.30
2022-12-18T14:32:17.846Z,22.25
2022-12-18T14:34:50.894Z,26.13
2022-12-18T14:37:21.708Z,23.33
2022-12-18T14:40:10.560Z,20.55
2022-12-18T14:42:38.221Z,21.95
2022-12-18T14:45:39.208Z,21.05
2022-12-18T14:48:23.229Z,23.15
2022-12-18T14:51:04.567Z,20.33
2022-12-18T14:53:37.208Z,23.77
2022-12-18T14:56:14.333Z,22.50
2022-12-18T14:58:46.361Z,20.75
2022-12-18T15:01:20.561Z,18.75
2022-12-18T15:03:47.118Z,20.02
2022-12-18T15:06:27.923Z,23.27
2022-12-18T15:08:54.630Z,22.98
2022-12-18T15:11:37.314Z,20.08
2022-12-18T15:14:23.578Z,19.85
2022-12-18T15:16:55.074Z,19.92
2022-12-18T15:19:24.641Z,23.75
2022-12-18T15:21:51.307Z,20.70
2022-12-18T15:24:21.035Z,19.73
2022-12-18T15:26:48.764Z,18.52
2022-12-18T15:29:27.037Z,24.77
2022-12-18T15:32:04.377Z,19.55
2022-12-18T15:34:32.209Z,19.23
2022-12-18T15:36:58.698Z,19.67
2022-12-18T15:39:26.250Z,22.35
2022-12-18T15:42:11.821Z,22.08
2022-12-18T15:44:38.837Z,23.33
2022-12-18T15:47:13.908Z,24.25
2022-12-18T15:49:40.543Z,21.90
2022-12-18T15:52:07.331Z,22.92
2022-12-18T15:54:53.497Z,20.35
2022-12-18T15:57:25.818Z,23.63
2022-12-18T15:59:54.149Z,20.25
2022-12-18T16:02:23.952Z,24.63
2022-12-18T16:04:52.958Z,26.23
2022-12-18T16:07:24.618Z,24.80
2022-12-18T16:09:52.049Z,22.63
2022-12-18T16:12:21.734Z,23.90
2022-12-18T16:14:48.329Z,20.98
2022-12-18T16:17:15.596Z,23.83
2022-12-18T16:19:46.244Z,22.63
2022-12-18T16:22:20.850Z,22.75
2022-12-18T16:24:47.625Z,24.15
2022-12-18T16:27:14.375Z,29.05
2022-12-18T16:29:40.741Z,22.75
2022-12-18T16:32:07.209Z,22.85
2022-12-18T16:34:36.053Z,23.15
2022-12-18T16:37:06.372Z,25.27
2022-12-18T16:39:35.280Z,21.20
2022-12-18T16:42:15.283Z,25.48
2022-12-18T16:44:42.658Z,21.35
2022-12-18T16:47:09.440Z,27.52
2022-12-18T16:49:37.526Z,24.08
2022-12-18T16:52:05.267Z,25.67
2022-12-18T16:54:31.710Z,26.52
2022-12-18T16:56:58.139Z,24.13
2022-12-18T16:59:26.877Z,20.95
2022-12-18T17:01:55.608Z,25.83
2022-12-18T17:04:22.133Z,23.77
2022-12-18T17:06:51.794Z,26.58
2022-12-18T17:09:28.546Z,28.00
2022-12-18T17:11:55.203Z,25.05
2022-12-18T17:14:25.006Z,24.27
2022-12-18T17:17:20.841Z,22.52
2022-12-18T17:19:47.994Z,22.85
2022-12-18T17:22:14.383Z,21.42
2022-12-18T17:24:40.719Z,23.35
2022-12-18T17:27:08.765Z,23.15
2022-12-18T17:29:35.275Z,22.77
2022-12-18T17:32:04.033Z,22.60
2022-12-18T17:34:30.685Z,24.13
2022-12-18T17:36:57.599Z,22.80
2022-12-18T17:39:24.028Z,23.73
2022-12-18T17:41:50.615Z,25.50
2022-12-18T17:44:17.775Z,25.00
2022-12-18T17:46:45.980Z,23.67
2022-12-18T17:49:12.770Z,22.08
2022-12-18T17:51:39.366Z,26.13
2022-12-18T17:54:05.941Z,24.67
2022-12-18T17:56:34.114Z,24.95
2022-12-18T17:59:03.462Z,24.42
2022-12-18T18:01:29.935Z,24.60
2022-12-18T18:03:56.477Z,25.05
2022-12-18T18:06:23.909Z,20.73
2022-12-18T18:08:50.712Z,21.70
2022-12-18T18:11:38.443Z,26.50
2022-12-18T18:14:10.928Z,20.52
2022-12-18T18:16:41.807Z,21.27
2022-12-18T18:19:17.555Z,23.27
2022-12-18T18:21:46.091Z,26.17
2022-12-18T18:24:15.401Z,27.65
2022-12-18T18:26:48.750Z,24.23
2022-12-18T18:29:22.306Z,25.65
2022-12-18T18:31:49.029Z,26.40
2022-12-18T18:34:25.053Z,29.17
2022-12-18T18:36:54.428Z,24.75
2022-12-18T18:39:21.116Z,28.50
2022-12-18T18:41:48.195Z,32.22
2022-12-18T18:44:18.538Z,25.80
2022-12-18T18:46:45.318Z,26.17
2022-12-18T18:49:13.606Z,28.15
2022-12-18T18:51:42.105Z,26.15
2022-12-18T18:54:12.141Z,26.02
2022-12-18T18:57:11.816Z,27.33
2022-12-18T18:59:30.358Z,26.67
2022-12-18T19:01:58.915Z,27.67
2022-12-18T19:04:25.589Z,27.73
2022-12-18T19:07:02.021Z,26.20
2022-12-18T19:09:28.763Z,25.00
2022-12-18T19:12:14.310Z,25.80
2022-12-18T19:14:40.731Z,28.67
2022-12-18T19:17:07.275Z,29.05
2022-12-18T19:19:33.976Z,28.67
2022-12-18T19:22:00.756Z,26.33
2022-12-18T19:24:27.388Z,26.42
2022-12-18T19:26:56.873Z,28.08
2022-12-18T19:29:24.789Z,22.23
2022-12-18T19:31:51.319Z,26.80
2022-12-18T19:34:17.781Z,30.65
2022-12-18T19:36:44.434Z,27.02
2022-12-18T19:39:14.988Z,26.88
2022-12-18T19:41:42.391Z,26.83
2022-12-18T19:44:12.060Z,30.85
2022-12-18T19:46:41.719Z,25.55
2022-12-18T19:49:10.080Z,23.60
2022-12-18T19:51:36.522Z,24.77
2022-12-18T19:54:03.176Z,25.25
2022-12-18T19:56:32.417Z,24.75
2022-12-18T19:58:59.546Z,29.13
2022-12-18T20:01:37.183Z,30.65
2022-12-18T20:04:04.275Z,28.70
2022-12-18T20:06:36.613Z,26.05
2022-12-18T20:09:06.420Z,25.38
2022-12-18T20:11:41.578Z,27.98
2022-12-18T20:14:10.074Z,26.90
2022-12-18T20:16:36.688Z,27.27
2022-12-18T20:19:04.076Z,27.73
2022-12-18T20:21:30.733Z,33.38
2022-12-18T20:23:57.137Z,29.30
2022-12-18T20:26:23.961Z,23.95
2022-12-18T20:28:50.529Z,29.67
2022-12-18T20:31:16.962Z,26.83
2022-12-18T20:33:44.559Z,31.33
2022-12-18T20:36:17.605Z,30.23
2022-12-18T20:38:48.124Z,24.83
2022-12-18T20:41:18.641Z,29.42
2022-12-18T20:43:45.725Z,26.83
2022-12-18T20:46:14.358Z,30.50
2022-12-18T20:48:41.278Z,32.90
2022-12-18T20:51:10.796Z,26.30
2022-12-18T20:53:38.555Z,28.90
2022-12-18T20:56:14.770Z,28.23
2022-12-18T20:58:44.681Z,27.27
2022-12-18T21:01:17.113Z,28.70
2022-12-18T21:03:45.889Z,29.73
2022-12-18T21:06:13.761Z,26.50
2022-12-18T21:08:40.102Z,26.52
2022-12-18T21:11:40.504Z,32.85
2022-12-18T21:14:11.904Z,30.95
2022-12-18T21:16:39.858Z,31.00
2022-12-18T21:19:06.482Z,31.38
2022-12-18T21:21:38.522Z,28.08
2022-12-18T21:24:06.469Z,30.15
2022-12-18T21:26:33.533Z,30.67
2022-12-18T21:29:03.197Z,28.52
2022-12-18T21:31:34.004Z,32.42
2022-12-18T21:34:02.495Z,31.30
2022-12-18T21:36:30.234Z,31.90
2022-12-18T21:38:57.539Z,36.75
2022-12-18T21:41:46.598Z,41.38
2022-12-18T21:44:17.531Z,33.00
2022-12-18T21:46:50.169Z,31.13
2022-12-18T21:49:21.839Z,33.53
2022-12-18T21:51:57.050Z,34.83
2022-12-18T21:54:24.909Z,31.60
2022-12-18T21:57:02.848Z,36.13
2022-12-18T21:59:35.709Z,36.40
2022-12-18T22:02:07.812Z,33.03
2022-12-18T22:04:34.447Z,33.88
2022-12-18T22:07:00.908Z,33.33
2022-12-18T22:09:27.739Z,33.00
2022-12-18T22:11:54.161Z,36.28
2022-12-18T22:14:21.517Z,31.45
2022-12-18T22:16:48.142Z,36.25
2022-12-18T22:19:16.086Z,32.95
2022-12-18T22:21:45.802Z,35.00
2022-12-18T22:24:14.319Z,36.15
2022-12-18T22:26:41.275Z,33.38
2022-12-18T22:29:29.264Z,35.95
2022-12-18T22:31:57.359Z,33.83
2022-12-18T22:34:23.689Z,37.47
2022-12-18T22:36:50.733Z,36.30
2022-12-18T22:39:25.442Z,31.65
2022-12-18T22:41:52.428Z,34.35
2022-12-18T22:44:19.332Z,35.95
2022-12-18T22:46:49.395Z,36.55
2022-12-18T22:49:25.396Z,34.83
2022-12-18T22:51:53.103Z,40.35
2022-12-18T22:54:20.807Z,34.47
2022-12-18T22:56:47.175Z,35.50
2022-12-18T22:59:19.622Z,35.55
2022-12-18T23:01:47.595Z,35.03
2022-12-18T23:04:15.406Z,37.53
2022-12-18T23:06:42.883Z,36.63
2022-12-18T23:09:18.075Z,38.00
2022-12-18T23:11:44.958Z,38.63
2022-12-18T23:14:11.989Z,34.10
2022-12-18T23:16:38.836Z,35.22
2022-12-18T23:19:05.754Z,35.35
2022-12-18T23:21:32.142Z,40.03
2022-12-18T23:23:58.843Z,39.10
2022-12-18T23:26:26.104Z,34.97
2022-12-18T23:28:53.481Z,36.03
2022-12-18T23:31:23.695Z,38.38
2022-12-18T23:33:51.820Z,38.83
2022-12-18T23:36:19.412Z,37.85
2022-12-18T23:38:51.010Z,37.30
2022-12-18T23:41:19.076Z,37.05
2022-12-18T23:43:45.746Z,36.78
2022-12-18T23:46:19.885Z,35.72
2022-12-18T23:48:46.872Z,40.63
2022-12-18T23:51:14.840Z,35.60
2022-12-18T23:53:42.515Z,34.42
2022-12-18T23:56:10.518Z,33.30
2022-12-18T23:58:38.416Z,32.80
